Flugplatz Walldorf

Für EDGX sind keine METAR/TAF Berichte vorhanden.
Es werden die Flugwettermeldungen vom Flugplatz Mannheim-City in 21 km Entfernung angezeigt.

Bericht für EDFM

vom 29.01. um 18:50 UTC

Wind 2 kt aus 180°

Sichtweite 10 km oder mehr

gute Sicht, keine Wolken < 5000 ft, keine CB, keine Wettererscheinungen (CAVOK)

Temperatur -1.0°C

Taupunkt -5.0°C

Luftfeuchtigkeit 74%

Luftdruck 1027 hPa

EDFM 291850Z 18002KT CAVOK M01/M05 Q1027
Keine Prognose (TAF) verfügbar.
Impressum